Time;durP1;ratioP1;P1;durP2;ratioP2;P2;SDS_P1;SDS_P2;PMS_P1;PMS_P2;Temp;Humidity;BMP_temperature;BMP_pressure;BME280_temperature;BME280_humidity;BME280_pressure;Samples;Min_cycle;Max_cycle;Signal;HPM_P1;HPM_P2
2022/03/15 00:01:58;;;;;;;;;10.33;7.00;;;;;11.85;53.50;102132.97;5079253;27;45362;-47
2022/03/15 00:04:24;;;;;;;;;6.00;6.00;;;;;11.85;53.88;102139.16;5079262;27;45248;-46
2022/03/15 00:06:49;;;;;;;;;10.67;7.00;;;;;11.83;53.78;102133.09;5078915;27;45263;-48
2022/03/15 00:09:14;;;;;;;;;9.33;7.00;;;;;11.78;53.72;102115.72;5079328;27;45452;-46
2022/03/15 00:11:40;;;;;;;;;7.33;6.00;;;;;11.78;53.89;102124.56;5078866;27;45322;-45
2022/03/15 00:14:09;;;;;;;;;9.00;6.33;;;;;11.81;54.00;102129.66;5078898;27;45332;-46
2022/03/15 00:16:34;;;;;;;;;10.33;8.00;;;;;11.79;54.19;102120.09;5079198;27;45252;-44
2022/03/15 00:19:03;;;;;;;;;10.67;8.00;;;;;11.81;54.08;102118.16;5078805;27;45344;-45
2022/03/15 00:21:28;;;;;;;;;7.33;7.33;;;;;11.84;53.83;102116.13;5078791;27;45350;-43
2022/03/15 00:23:53;;;;;;;;;8.00;7.00;;;;;11.84;53.78;102116.13;5078659;27;45321;-43
2022/03/15 00:26:19;;;;;;;;;10.67;7.33;;;;;11.82;53.97;102114.53;5078852;27;45221;-43
2022/03/15 00:28:45;;;;;;;;;8.33;7.00;;;;;11.86;53.86;102126.66;5079294;27;45270;-42
2022/03/15 00:31:10;;;;;;;;;11.00;5.33;;;;;11.83;53.83;102118.91;5078612;27;46371;-42
2022/03/15 00:33:37;;;;;;;;;8.67;7.00;;;;;11.83;53.46;102121.56;5078682;27;45404;-42
2022/03/15 00:36:03;;;;;;;;;2.67;1.33;;;;;11.78;53.68;102113.06;5078780;27;45337;-42
2022/03/15 00:38:28;;;;;;;;;9.33;5.67;;;;;11.77;53.49;102124.69;5078319;27;45509;-41
2022/03/15 00:40:53;;;;;;;;;14.67;6.67;;;;;11.73;54.01;102116.94;5078653;27;45351;-42
2022/03/15 00:43:19;;;;;;;;;11.00;7.00;;;;;11.74;54.07;102115.13;5078505;27;45342;-42
2022/03/15 00:45:44;;;;;;;;;12.67;6.00;;;;;11.71;53.81;102113.56;5077306;27;45323;-43
2022/03/15 00:48:10;;;;;;;;;10.00;7.00;;;;;11.71;53.82;102110.91;5078871;27;45330;-41
2022/03/15 00:50:37;;;;;;;;;9.67;7.00;;;;;11.69;53.92;102106.63;5078301;27;45381;-43
2022/03/15 00:53:03;;;;;;;;;11.00;7.00;;;;;11.68;53.89;102105.78;5078221;27;45209;-42
2022/03/15 00:55:28;;;;;;;;;7.00;7.00;;;;;11.68;54.01;102099.63;5078172;27;45232;-42
2022/03/15 00:57:54;;;;;;;;;10.33;7.00;;;;;11.68;54.63;102108.47;5078430;27;45344;-41
2022/03/15 01:00:22;;;;;;;;;8.67;7.67;;;;;11.70;54.43;102105.66;5078150;27;47014;-44
2022/03/15 01:02:48;;;;;;;;;9.00;4.00;;;;;11.68;54.17;102094.28;5077988;27;45307;-45
2022/03/15 01:05:13;;;;;;;;;9.00;6.33;;;;;11.66;54.69;102091.72;5078297;27;45362;-40
2022/03/15 01:07:39;;;;;;;;;13.00;9.00;;;;;11.67;54.44;102085.44;5078238;27;45513;-41
2022/03/15 01:10:06;;;;;;;;;12.00;8.00;;;;;11.68;54.48;102084.47;5077951;27;46419;-41
2022/03/15 01:12:32;;;;;;;;;6.00;6.00;;;;;11.69;54.26;102082.66;5078138;27;45258;-41
2022/03/15 01:14:58;;;;;;;;;8.33;7.00;;;;;11.71;54.19;102091.34;5077813;27;45252;-41
2022/03/15 01:17:24;;;;;;;;;7.33;6.00;;;;;11.73;54.44;102087.63;5077586;27;45235;-42
2022/03/15 01:19:49;;;;;;;;;7.00;7.00;;;;;11.72;54.52;102087.75;5077825;27;45715;-42
2022/03/15 01:22:15;;;;;;;;;8.67;5.33;;;;;11.66;54.58;102067.72;5077905;27;45429;-41
2022/03/15 01:24:40;;;;;;;;;7.67;7.00;;;;;11.57;54.26;102054.28;5078013;27;45413;-42
2022/03/15 01:27:06;;;;;;;;;7.67;3.33;;;;;11.71;54.22;102073.56;5078058;27;45435;-42
2022/03/15 01:29:31;;;;;;;;;9.00;7.33;;;;;11.71;54.53;102062.91;5077520;27;45359;-42
2022/03/15 01:31:59;;;;;;;;;9.00;7.00;;;;;11.69;54.49;102064.00;5077654;27;45391;-41
2022/03/15 01:34:24;;;;;;;;;7.00;3.33;;;;;11.66;54.38;102061.56;5077792;27;45387;-42
2022/03/15 01:36:50;;;;;;;;;10.33;7.00;;;;;11.66;54.67;102058.91;5077781;27;45265;-43
2022/03/15 01:39:16;;;;;;;;;11.00;7.00;;;;;11.66;54.88;102066.88;5077192;27;46040;-43
2022/03/15 01:41:44;;;;;;;;;7.67;6.00;;;;;11.61;54.83;102053.94;5077565;27;45382;-42
2022/03/15 01:44:18;;;;;;;;;7.00;5.67;;;;;11.64;54.79;102053.69;5077341;27;45510;-43
2022/03/15 01:46:44;;;;;;;;;9.00;6.00;;;;;11.67;54.91;102049.91;5077598;27;45282;-42
2022/03/15 01:49:10;;;;;;;;;6.67;6.00;;;;;11.60;55.20;102046.06;5077128;27;45483;-44
2022/03/15 01:51:40;;;;;;;;;11.67;6.00;;;;;11.64;55.17;102043.03;5077227;27;45312;-42
2022/03/15 01:54:07;;;;;;;;;8.00;5.00;;;;;11.66;55.35;102041.06;5077106;27;45215;-42
2022/03/15 01:56:34;;;;;;;;;9.00;6.33;;;;;11.64;55.01;102027.03;5076255;28;45368;-42
2022/03/15 01:59:00;;;;;;;;;8.00;4.00;;;;;11.66;55.15;102025.09;5077102;27;47292;-42
2022/03/15 02:01:25;;;;;;;;;10.33;6.67;;;;;11.66;55.37;102019.75;5076857;27;45440;-43
2022/03/15 02:03:51;;;;;;;;;5.33;4.00;;;;;11.66;55.88;102014.44;5077366;27;45515;-42
2022/03/15 02:06:16;;;;;;;;;7.00;5.33;;;;;11.66;55.94;102022.41;5077402;27;45452;-41
2022/03/15 02:08:42;;;;;;;;;7.67;5.33;;;;;11.66;56.53;102011.75;5076794;27;46740;-42
2022/03/15 02:11:08;;;;;;;;;7.00;7.00;;;;;11.67;56.33;102012.59;5076844;27;45260;-42
2022/03/15 02:13:34;;;;;;;;;4.33;4.33;;;;;11.67;56.73;102010.81;5077167;27;45380;-43
2022/03/15 02:16:00;;;;;;;;;6.00;4.00;;;;;11.66;57.28;102006.44;5077369;27;45345;-42
2022/03/15 02:18:27;;;;;;;;;6.00;6.00;;;;;11.67;57.46;102009.94;5076776;27;45439;-42
2022/03/15 02:20:56;;;;;;;;;10.33;7.67;;;;;11.68;57.44;102004.50;5077001;27;45357;-43
2022/03/15 02:23:21;;;;;;;;;7.33;6.67;;;;;11.69;57.57;102000.00;5076929;27;45287;-44
2022/03/15 02:25:47;;;;;;;;;8.00;6.33;;;;;11.70;57.99;101991.88;5077249;27;45298;-42
2022/03/15 02:28:13;;;;;;;;;7.00;7.00;;;;;11.72;58.17;101986.44;5076900;27;46002;-42
2022/03/15 02:30:39;;;;;;;;;8.00;3.67;;;;;11.75;58.50;101986.19;5075581;27;45433;-42
2022/03/15 02:33:04;;;;;;;;;6.33;6.33;;;;;11.74;58.08;101987.16;5077037;27;45386;-45
2022/03/15 02:35:30;;;;;;;;;5.00;5.00;;;;;11.74;58.88;101982.66;5077044;27;45559;-42
2022/03/15 02:37:55;;;;;;;;;5.67;4.67;;;;;11.73;58.89;101980.13;5076788;27;46047;-43
2022/03/15 02:40:21;;;;;;;;;4.00;4.00;;;;;11.71;59.55;101969.63;5076955;27;45312;-44
2022/03/15 02:42:46;;;;;;;;;6.00;6.00;;;;;11.69;58.81;101971.53;5077305;27;45254;-41
2022/03/15 02:45:13;;;;;;;;;6.00;4.00;;;;;11.72;59.65;101968.63;5076895;27;45583;-42
2022/03/15 02:47:40;;;;;;;;;13.33;7.00;;;;;11.73;59.90;101969.47;5076600;27;46480;-42
2022/03/15 02:50:05;;;;;;;;;9.33;6.00;;;;;11.71;60.41;101966.94;5076636;27;45401;-43
2022/03/15 02:52:33;;;;;;;;;8.33;6.33;;;;;11.69;60.78;101963.53;5076735;27;45370;-42
2022/03/15 02:54:58;;;;;;;;;7.67;6.67;;;;;11.62;60.17;101957.00;5076803;27;45441;-42
2022/03/15 02:57:25;;;;;;;;;6.00;5.67;;;;;11.67;60.79;101954.84;5076230;27;45441;-41
2022/03/15 02:59:51;;;;;;;;;12.67;6.00;;;;;11.65;61.14;101951.44;5076528;27;45351;-42
2022/03/15 03:02:17;;;;;;;;;6.00;6.00;;;;;11.65;61.64;101956.75;5075487;28;45366;-42
2022/03/15 03:04:43;;;;;;;;;9.00;7.00;;;;;11.64;61.67;101944.41;5076762;28;45349;-44
2022/03/15 03:07:09;;;;;;;;;8.00;8.00;;;;;11.64;61.97;101946.25;5076497;27;46281;-43
2022/03/15 03:09:34;;;;;;;;;10.33;7.00;;;;;11.58;62.64;101931.56;5076297;27;45306;-45
2022/03/15 03:12:00;;;;;;;;;8.67;7.00;;;;;11.60;63.55;101942.13;5076739;27;45414;-42
2022/03/15 03:14:25;;;;;;;;;8.00;7.00;;;;;11.60;63.40;101942.97;5076512;27;45362;-42
2022/03/15 03:16:51;;;;;;;;;7.67;6.00;;;;;11.60;63.27;101936.78;5076392;27;46097;-41
2022/03/15 03:19:18;;;;;;;;;7.33;6.67;;;;;11.49;63.55;101933.16;5076082;27;45377;-42
2022/03/15 03:21:44;;;;;;;;;11.67;7.00;;;;;11.57;64.76;101943.22;5076299;27;45412;-43
2022/03/15 03:24:09;;;;;;;;;12.67;7.67;;;;;11.55;65.31;101944.31;5076618;27;45505;-45
2022/03/15 03:26:38;;;;;;;;;7.33;7.00;;;;;11.55;63.68;101936.31;5075913;27;45494;-42
2022/03/15 03:29:09;;;;;;;;;9.33;7.67;;;;;11.53;65.21;101946.25;5076209;27;45407;-43
2022/03/15 03:31:37;;;;;;;;;11.67;6.00;;;;;11.51;65.65;101938.38;5076069;27;45525;-42
2022/03/15 03:34:04;;;;;;;;;12.00;8.00;;;;;11.50;65.95;101944.66;5076302;27;45338;-44
2022/03/15 03:36:31;;;;;;;;;8.67;8.00;;;;;11.48;66.15;101931.47;5076023;27;46295;-44
2022/03/15 03:38:57;;;;;;;;;18.00;8.33;;;;;11.47;67.47;101942.28;5075719;27;45499;-42
2022/03/15 03:41:22;;;;;;;;;12.33;6.00;;;;;11.47;66.71;101939.59;5077621;27;45291;-43
2022/03/15 03:43:47;;;;;;;;;14.00;7.33;;;;;11.43;66.85;101930.16;5079665;27;45369;-42
2022/03/15 03:46:14;;;;;;;;;10.33;8.00;;;;;11.42;67.57;101941.78;5079562;27;46166;-46
2022/03/15 03:48:40;;;;;;;;;11.67;10.00;;;;;11.44;67.98;101934.50;5079568;28;45425;-42
2022/03/15 03:51:05;;;;;;;;;11.00;8.00;;;;;11.41;67.92;101938.25;5079342;27;45267;-43
2022/03/15 03:53:31;;;;;;;;;10.67;8.67;;;;;11.40;68.03;101933.91;5079442;27;45353;-45
2022/03/15 03:55:56;;;;;;;;;9.00;7.33;;;;;11.40;68.30;101928.56;5079175;27;45219;-44
2022/03/15 03:58:22;;;;;;;;;11.00;9.33;;;;;11.39;68.85;101926.88;5079085;27;45252;-43
2022/03/15 04:00:47;;;;;;;;;10.67;8.33;;;;;11.30;68.60;101927.63;5079391;27;45249;-44
2022/03/15 04:03:17;;;;;;;;;8.67;8.00;;;;;11.35;68.93;101930.78;5079480;27;45293;-50
2022/03/15 04:05:46;;;;;;;;;9.33;9.33;;;;;11.32;69.39;101930.16;5078996;27;46370;-44
2022/03/15 04:08:13;;;;;;;;;12.33;8.67;;;;;11.31;70.16;101926.66;5079164;27;45332;-43
2022/03/15 04:10:39;;;;;;;;;12.00;11.67;;;;;11.24;70.39;101917.44;5079150;27;45448;-45
2022/03/15 04:13:05;;;;;;;;;7.33;6.00;;;;;11.28;70.71;101913.56;5079149;27;45350;-42
2022/03/15 04:15:32;;;;;;;;;8.67;8.00;;;;;11.26;70.65;101912.88;5078938;27;46108;-43
2022/03/15 04:17:57;;;;;;;;;12.00;10.67;;;;;11.22;70.53;101909.59;5078867;27;45496;-43
2022/03/15 04:20:22;;;;;;;;;9.00;7.00;;;;;11.26;71.25;101918.19;5079001;27;45924;-46
2022/03/15 04:22:48;;;;;;;;;7.33;7.00;;;;;11.29;70.41;101917.09;5079284;27;45417;-45
2022/03/15 04:25:14;;;;;;;;;11.33;8.00;;;;;11.29;70.83;101909.09;5078387;27;46983;-44
2022/03/15 04:27:39;;;;;;;;;8.33;8.33;;;;;11.21;71.72;101883.94;5078682;27;45382;-47
2022/03/15 04:30:06;;;;;;;;;11.00;8.67;;;;;11.30;71.14;101908.16;5078697;27;45440;-50
2022/03/15 04:32:32;;;;;;;;;8.33;6.00;;;;;11.22;71.25;101893.59;5079150;27;45318;-49
2022/03/15 04:34:58;;;;;;;;;8.67;6.00;;;;;11.30;71.49;101908.16;5078677;27;46114;-47
2022/03/15 04:37:23;;;;;;;;;11.67;7.00;;;;;11.28;71.70;101900.25;5078349;27;45396;-50
2022/03/15 04:39:50;;;;;;;;;6.67;6.33;;;;;11.24;71.57;101894.31;5078752;27;45421;-46
2022/03/15 04:42:16;;;;;;;;;8.00;7.67;;;;;11.23;71.80;101897.13;5078697;27;45440;-50
2022/03/15 04:44:42;;;;;;;;;11.67;9.33;;;;;11.24;71.36;101912.13;5078444;27;46023;-49
2022/03/15 04:47:07;;;;;;;;;11.33;8.67;;;;;11.23;70.76;101889.13;5078493;27;45345;-47
2022/03/15 04:49:34;;;;;;;;;11.33;8.33;;;;;11.24;72.32;101883.66;5078581;27;45962;-49
2022/03/15 04:52:02;;;;;;;;;16.00;11.67;;;;;11.28;71.64;101899.41;5078099;27;45430;-43
2022/03/15 04:54:28;;;;;;;;;13.33;9.00;;;;;11.30;72.01;101890.34;5077951;27;46060;-50
2022/03/15 04:56:53;;;;;;;;;10.33;7.67;;;;;11.34;72.05;101894.44;5078246;27;45354;-56
2022/03/15 04:59:19;;;;;;;;;7.33;7.00;;;;;11.40;71.77;101890.44;5078291;27;45257;-48
2022/03/15 05:01:44;;;;;;;;;10.00;7.00;;;;;11.44;71.64;101897.22;5078628;27;45332;-50
2022/03/15 05:04:10;;;;;;;;;8.00;8.00;;;;;11.45;71.30;101883.75;5078084;27;46235;-51
2022/03/15 05:06:38;;;;;;;;;11.00;9.00;;;;;11.48;70.86;101891.50;5078248;27;45326;-50
2022/03/15 05:09:03;;;;;;;;;10.67;10.00;;;;;11.48;70.20;101885.34;5078408;27;45382;-50
2022/03/15 05:11:29;;;;;;;;;8.00;8.00;;;;;11.47;70.87;101878.31;5078259;27;45386;-49
2022/03/15 05:13:54;;;;;;;;;7.67;6.67;;;;;11.45;69.56;101880.25;5077974;27;46904;-50
2022/03/15 05:16:21;;;;;;;;;10.33;8.00;;;;;11.47;70.61;101886.31;5078120;27;45706;-50
2022/03/15 05:18:51;;;;;;;;;7.67;7.67;;;;;11.44;71.15;101876.75;5078108;27;45220;-50
2022/03/15 05:21:17;;;;;;;;;8.00;7.00;;;;;11.46;71.80;101888.13;5078189;27;45406;-48
2022/03/15 05:23:47;;;;;;;;;12.00;8.67;;;;;11.46;72.25;101884.59;5077605;27;46287;-49
2022/03/15 05:26:14;;;;;;;;;11.67;9.33;;;;;11.45;72.66;101888.25;5077819;27;45419;-44
2022/03/15 05:28:40;;;;;;;;;8.67;6.67;;;;;11.46;72.74;101887.25;5077879;27;45385;-45
2022/03/15 05:31:06;;;;;;;;;9.00;7.33;;;;;11.45;72.09;101882.91;5078040;27;45157;-50
2022/03/15 05:33:31;;;;;;;;;12.00;7.33;;;;;11.46;72.64;101880.13;5077526;27;46270;-47
2022/03/15 05:35:57;;;;;;;;;3.00;3.00;;;;;11.47;73.19;101884.50;5077670;27;45432;-48
2022/03/15 05:38:23;;;;;;;;;11.33;7.67;;;;;11.48;73.17;101891.50;5077758;27;46001;-45
2022/03/15 05:40:48;;;;;;;;;11.00;10.33;;;;;11.37;73.01;101870.19;5077597;27;45365;-46
2022/03/15 05:43:14;;;;;;;;;9.00;9.00;;;;;11.51;72.44;101894.91;5077381;27;46852;-49
2022/03/15 05:45:40;;;;;;;;;10.67;7.67;;;;;11.51;73.39;101890.41;5077326;27;45740;-47
2022/03/15 05:48:06;;;;;;;;;8.67;7.33;;;;;11.51;72.61;101886.91;5077742;28;45418;-44
2022/03/15 05:50:31;;;;;;;;;12.00;8.67;;;;;11.52;73.35;101892.09;5077549;27;45564;-47
2022/03/15 05:52:57;;;;;;;;;14.67;11.00;;;;;11.52;72.82;101886.78;5077220;27;46061;-46
2022/03/15 05:55:23;;;;;;;;;10.67;7.67;;;;;11.53;73.12;101896.47;5077553;27;45411;-46
2022/03/15 05:57:49;;;;;;;;;10.67;8.67;;;;;11.52;72.45;101897.44;5077222;27;45787;-48
2022/03/15 06:00:15;;;;;;;;;9.33;8.00;;;;;11.55;71.08;101899.88;5077710;27;45285;-42
2022/03/15 06:02:41;;;;;;;;;11.33;8.00;;;;;11.45;72.37;101878.41;5077281;27;45693;-43
2022/03/15 06:05:07;;;;;;;;;14.67;9.00;;;;;11.52;73.20;101886.78;5077025;27;45305;-46
2022/03/15 06:07:33;;;;;;;;;9.67;9.67;;;;;11.52;73.27;101891.25;5077367;27;45417;-47
2022/03/15 06:09:58;;;;;;;;;9.67;8.33;;;;;11.53;73.48;101899.13;5077388;27;45468;-44
2022/03/15 06:12:25;;;;;;;;;15.67;8.67;;;;;11.55;73.38;101902.53;5077053;27;46884;-43
2022/03/15 06:14:51;;;;;;;;;10.00;10.00;;;;;11.51;73.35;101887.75;5076943;27;45454;-47
2022/03/15 06:17:17;;;;;;;;;11.33;11.00;;;;;11.54;73.75;101905.28;5077205;27;45327;-47
2022/03/15 06:19:42;;;;;;;;;16.33;12.33;;;;;11.49;73.25;101887.03;5077213;27;45266;-47
2022/03/15 06:22:08;;;;;;;;;9.67;8.00;;;;;11.56;73.62;101903.38;5076923;27;46021;-45
2022/03/15 06:24:34;;;;;;;;;17.00;12.33;;;;;11.53;72.61;101899.13;5076974;27;45332;-47
2022/03/15 06:26:59;;;;;;;;;8.00;8.00;;;;;11.53;73.56;101906.28;5077174;27;45351;-49
2022/03/15 06:29:26;;;;;;;;;11.67;11.33;;;;;11.52;73.55;101901.91;5077212;27;45437;-42
2022/03/15 06:31:53;;;;;;;;;15.00;12.00;;;;;11.51;72.58;101894.91;5076620;27;46145;-46
2022/03/15 06:34:19;;;;;;;;;13.67;11.67;;;;;11.52;72.32;101901.91;5076717;27;45373;-43
2022/03/15 06:36:44;;;;;;;;;13.67;11.67;;;;;11.49;73.99;101901.19;5076682;27;45385;-47
2022/03/15 06:39:10;;;;;;;;;15.33;11.33;;;;;11.52;73.75;101902.75;5077240;27;45468;-48
2022/03/15 06:41:37;;;;;;;;;16.00;13.00;;;;;11.53;74.10;101901.78;5076443;27;46198;-50
2022/03/15 06:44:03;;;;;;;;;13.67;11.00;;;;;11.55;73.35;101899.88;5076512;27;45359;-43
2022/03/15 06:46:30;;;;;;;;;16.00;15.33;;;;;11.55;74.17;101894.53;5076705;27;45576;-50
2022/03/15 06:48:55;;;;;;;;;13.33;13.00;;;;;11.53;74.30;101899.13;5076915;27;45358;-49
2022/03/15 06:51:20;;;;;;;;;15.33;14.67;;;;;11.33;74.00;101870.56;5076691;27;46099;-43
2022/03/15 06:53:46;;;;;;;;;16.67;12.67;;;;;11.45;74.30;101897.06;5076400;27;45448;-46
2022/03/15 06:56:11;;;;;;;;;19.00;15.67;;;;;11.47;74.02;101911.13;5075459;28;45470;-45
2022/03/15 06:58:37;;;;;;;;;16.33;16.00;;;;;11.47;74.61;101900.47;5076569;27;45404;-47
2022/03/15 07:01:02;;;;;;;;;15.00;14.33;;;;;11.52;74.80;101901.91;5076679;27;45969;-43
2022/03/15 07:03:27;;;;;;;;;15.67;15.67;;;;;11.52;74.18;101896.59;5076526;27;45326;-46
2022/03/15 07:05:53;;;;;;;;;18.50;16.00;;;;;11.52;74.47;101892.09;5076198;27;45332;-46
2022/03/15 07:08:18;;;;;;;;;17.00;14.00;;;;;11.52;74.35;101878.78;5076827;27;45373;-49
2022/03/15 07:10:43;;;;;;;;;17.00;15.00;;;;;11.52;74.38;101881.44;5074931;28;47096;-48
2022/03/15 07:13:09;;;;;;;;;18.33;16.00;;;;;11.54;74.41;101892.81;5076300;27;45511;-42
2022/03/15 07:15:34;;;;;;;;;19.75;16.00;;;;;11.57;74.67;101902.38;5077104;27;45419;-47
2022/03/15 07:18:00;;;;;;;;;22.33;16.00;;;;;11.57;74.31;101900.56;5080248;27;45310;-45
2022/03/15 07:20:27;;;;;;;;;17.75;16.25;;;;;11.56;74.44;101900.72;5079832;27;46128;-46
2022/03/15 07:22:53;;;;;;;;;21.75;17.50;;;;;11.57;74.11;101908.56;5079760;27;45386;-45
2022/03/15 07:25:20;;;;;;;;;22.00;18.00;;;;;11.53;73.31;101898.28;5079839;27;45406;-46
2022/03/15 07:27:46;;;;;;;;;26.00;16.00;;;;;11.54;74.27;101906.13;5079896;27;45540;-44
2022/03/15 07:30:12;;;;;;;;;18.50;16.25;;;;;11.49;73.69;101900.34;5079566;27;46590;-45
2022/03/15 07:32:37;;;;;;;;;15.33;14.67;;;;;11.51;73.67;101902.91;5079669;27;45511;-48
2022/03/15 07:35:03;;;;;;;;;17.67;16.00;;;;;11.51;74.53;101911.75;5079825;27;45513;-44
2022/03/15 07:37:29;;;;;;;;;13.67;13.33;;;;;11.48;75.02;101909.31;5079962;27;45394;-49
2022/03/15 07:39:54;;;;;;;;;18.33;17.67;;;;;11.47;74.09;101904.97;5079395;27;46210;-44
2022/03/15 07:42:20;;;;;;;;;18.75;17.25;;;;;11.50;74.36;101910.03;5079425;27;45600;-47
2022/03/15 07:44:45;;;;;;;;;30.25;25.75;;;;;11.53;73.51;101903.59;5079632;27;45570;-51
2022/03/15 07:47:13;;;;;;;;;34.75;33.25;;;;;11.52;74.03;101896.59;5079781;27;45229;-46
2022/03/15 07:49:38;;;;;;;;;18.00;13.67;;;;;11.53;73.30;101891.13;5079396;27;46410;-45
2022/03/15 07:52:04;;;;;;;;;23.75;17.75;;;;;11.54;74.39;101895.47;5079291;27;45684;-46
2022/03/15 07:54:29;;;;;;;;;20.75;19.50;;;;;11.54;74.36;101898.16;5079503;27;45239;-48
2022/03/15 07:56:54;;;;;;;;;21.75;17.25;;;;;11.53;73.41;101896.47;5079705;27;45371;-49
2022/03/15 07:59:20;;;;;;;;;23.50;18.25;;;;;11.56;74.63;101890.03;5079023;27;45716;-46
2022/03/15 08:01:45;;;;;;;;;24.75;16.00;;;;;11.54;74.80;101884.81;5079096;27;45295;-46
2022/03/15 08:04:11;;;;;;;;;23.25;14.50;;;;;11.59;75.07;101889.81;5079649;27;45841;-46
2022/03/15 08:06:36;;;;;;;;;21.00;17.00;;;;;11.61;74.74;101891.34;5079413;27;45322;-43
2022/03/15 08:09:03;;;;;;;;;25.00;22.25;;;;;11.62;73.62;101887.72;5079132;27;45351;-47
2022/03/15 08:11:29;;;;;;;;;21.33;18.33;;;;;11.67;74.12;101880.22;5079043;27;45416;-42
2022/03/15 08:13:54;;;;;;;;;27.00;18.50;;;;;11.70;73.68;101887.09;5078956;27;45386;-47
2022/03/15 08:16:24;;;;;;;;;23.50;20.00;;;;;11.67;73.33;101884.66;5079309;27;45284;-42
2022/03/15 08:18:51;;;;;;;;;20.75;17.75;;;;;11.72;74.72;101898.47;5078641;27;45333;-47
2022/03/15 08:21:17;;;;;;;;;24.75;20.50;;;;;11.71;73.27;101891.44;5079023;27;45314;-42
2022/03/15 08:23:43;;;;;;;;;24.25;17.25;;;;;11.71;72.90;101886.09;5078948;27;45335;-49
2022/03/15 08:26:08;;;;;;;;;23.50;18.25;;;;;11.67;73.65;101877.53;5079046;27;45342;-48
2022/03/15 08:28:34;;;;;;;;;24.00;20.75;;;;;11.72;73.01;101882.50;5078448;27;46314;-43
2022/03/15 08:31:00;;;;;;;;;23.25;21.25;;;;;11.71;73.36;101870.09;5078849;27;45348;-47
2022/03/15 08:33:26;;;;;;;;;22.50;17.25;;;;;11.68;73.18;101863.22;5078970;27;45465;-43
2022/03/15 08:35:51;;;;;;;;;21.25;18.50;;;;;11.66;72.88;101854.50;5078978;27;45324;-45
2022/03/15 08:38:17;;;;;;;;;20.50;16.75;;;;;11.72;72.60;101877.16;5078649;27;45235;-42
2022/03/15 08:40:42;;;;;;;;;22.25;17.75;;;;;11.76;73.00;101891.09;5079066;27;45307;-45
2022/03/15 08:43:08;;;;;;;;;23.75;21.50;;;;;11.74;72.99;101899.19;5078529;27;45375;-46
2022/03/15 08:45:34;;;;;;;;;23.00;21.50;;;;;11.75;73.98;101908.88;5078837;27;45231;-46
2022/03/15 08:48:00;;;;;;;;;24.00;20.50;;;;;11.73;74.33;101894.84;5078480;27;45961;-43
2022/03/15 08:50:26;;;;;;;;;22.75;18.50;;;;;11.71;74.04;101908.31;5078877;27;45492;-44
2022/03/15 08:52:52;;;;;;;;;29.25;22.75;;;;;11.74;74.08;101902.69;5078670;27;45410;-44
2022/03/15 08:55:18;;;;;;;;;30.75;24.00;;;;;11.73;73.93;101906.34;5078612;27;45378;-43
2022/03/15 08:57:44;;;;;;;;;19.75;17.00;;;;;11.63;74.52;101892.09;5078097;27;46959;-42
2022/03/15 09:00:11;;;;;;;;;22.25;16.00;;;;;11.70;74.07;101905.75;5078195;27;45539;-44
2022/03/15 09:02:37;;;;;;;;;19.33;17.33;;;;;11.65;74.50;101908.78;5078285;27;45460;-43
2022/03/15 09:05:02;;;;;;;;;29.67;22.67;;;;;11.74;74.73;101912.50;5078269;27;45607;-43
2022/03/15 09:07:30;;;;;;;;;28.75;23.00;;;;;11.76;74.70;101905.25;5077953;27;45360;-47
2022/03/15 09:09:55;;;;;;;;;27.25;20.50;;;;;11.77;74.28;101896.28;5077830;27;45154;-46
2022/03/15 09:12:21;;;;;;;;;32.75;22.50;;;;;11.81;74.69;101913.72;5078270;27;45575;-48
2022/03/15 09:14:46;;;;;;;;;36.00;23.25;;;;;11.82;74.17;101909.22;5077954;27;45208;-49
2022/03/15 09:17:13;;;;;;;;;31.75;23.25;;;;;11.82;74.06;101918.06;5078075;27;46097;-44
2022/03/15 09:19:40;;;;;;;;;28.25;22.75;;;;;11.86;73.80;101910.69;5077844;27;45303;-50
2022/03/15 09:22:07;;;;;;;;;36.50;29.75;;;;;11.91;74.34;101916.50;5077740;27;45335;-43
2022/03/15 09:24:34;;;;;;;;;27.00;24.25;;;;;11.95;74.37;101916.13;5078256;28;45363;-42
2022/03/15 09:26:59;;;;;;;;;25.00;22.25;;;;;12.03;74.88;101918.16;5077616;27;46690;-42
2022/03/15 09:29:25;;;;;;;;;31.00;26.00;;;;;12.08;73.79;101915.94;5077728;27;45320;-48
2022/03/15 09:31:50;;;;;;;;;29.00;22.00;;;;;12.15;73.73;101914.47;5077890;27;45801;-47
2022/03/15 09:34:17;;;;;;;;;34.75;28.75;;;;;12.21;73.25;101911.25;5078033;27;45256;-47
2022/03/15 09:36:44;;;;;;;;;31.25;26.25;;;;;12.23;73.48;101903.16;5077711;27;46375;-52
2022/03/15 09:39:10;;;;;;;;;31.25;27.00;;;;;12.20;73.88;101901.56;5076735;27;45322;-50
2022/03/15 09:41:39;;;;;;;;;29.25;23.00;;;;;12.22;73.98;101906.81;5077787;27;45427;-49
2022/03/15 09:44:07;;;;;;;;;31.00;21.33;;;;;12.26;73.52;101897.53;5076425;27;45376;-50
2022/03/15 09:46:41;;;;;;;;;36.33;24.67;;;;;12.29;73.55;101897.28;5077350;27;46868;-51
2022/03/15 09:49:08;;;;;;;;;32.00;26.50;;;;;12.31;73.12;101894.50;5077349;27;45428;-48
2022/03/15 09:51:35;;;;;;;;;28.50;23.00;;;;;12.27;73.89;101887.75;5077550;27;45480;-49
2022/03/15 09:54:02;;;;;;;;;22.50;19.75;;;;;12.27;74.00;101891.25;5077731;27;45449;-50
2022/03/15 09:56:28;;;;;;;;;22.75;20.75;;;;;12.29;73.93;101883.09;5077189;27;45420;-49
2022/03/15 09:58:53;;;;;;;;;30.25;25.50;;;;;12.29;73.59;101875.09;5077232;27;45243;-48
2022/03/15 10:01:19;;;;;;;;;25.75;24.00;;;;;12.29;74.35;101881.28;5077471;27;45516;-40
2022/03/15 10:03:46;;;;;;;;;31.00;28.00;;;;;12.21;74.16;101876.59;5077734;27;45390;-47
2022/03/15 10:06:15;;;;;;;;;35.25;23.75;;;;;12.26;74.22;101878.03;5077201;27;46084;-46
2022/03/15 10:08:41;;;;;;;;;28.75;23.50;;;;;12.26;74.69;101870.00;5077037;28;45359;-44
2022/03/15 10:11:07;;;;;;;;;29.00;22.75;;;;;12.23;74.58;101871.13;5077469;27;45437;-49
2022/03/15 10:13:33;;;;;;;;;20.25;19.50;;;;;12.20;74.57;101871.38;5077299;27;45335;-44
2022/03/15 10:16:00;;;;;;;;;27.25;23.50;;;;;12.19;75.08;101878.56;5077072;27;46106;-42
2022/03/15 10:18:27;;;;;;;;;31.50;24.00;;;;;12.23;74.74;101882.66;5077119;27;45236;-43
2022/03/15 10:20:53;;;;;;;;;29.25;23.75;;;;;12.23;73.83;101863.97;5077115;27;45350;-44
2022/03/15 10:23:24;;;;;;;;;32.00;22.25;;;;;12.27;74.23;101869.91;5077350;27;45379;-42
2022/03/15 10:25:53;;;;;;;;;28.00;23.25;;;;;12.26;74.99;101876.19;5076843;27;46424;-43
2022/03/15 10:28:19;;;;;;;;;32.75;25.00;;;;;12.16;74.00;101854.78;5076845;28;45381;-44
2022/03/15 10:30:46;;;;;;;;;32.00;26.50;;;;;12.21;74.90;101865.91;5077087;27;45475;-41
2022/03/15 10:33:13;;;;;;;;;34.25;27.75;;;;;12.18;74.77;101865.34;5077026;27;45200;-41
2022/03/15 10:35:43;;;;;;;;;30.00;23.00;;;;;12.13;74.96;101859.53;5076878;28;45258;-42
2022/03/15 10:38:09;;;;;;;;;38.25;28.75;;;;;12.12;75.38;101864.03;5076690;28;45662;-43
2022/03/15 10:40:47;;;;;;;;;30.33;24.33;;;;;12.10;74.88;101867.81;5076732;27;45280;-44
2022/03/15 10:43:17;;;;;;;;;33.25;26.25;;;;;12.08;75.78;101864.41;5076893;27;45373;-43
2022/03/15 10:45:45;;;;;;;;;33.25;25.00;;;;;12.09;75.67;101868.78;5076241;27;46227;-42
2022/03/15 10:48:26;;;;;;;;;25.25;23.50;;;;;12.08;75.66;101870.59;5076414;27;45383;-43
2022/03/15 10:50:55;;;;;;;;;30.33;21.33;;;;;12.08;75.17;101864.41;5077804;27;45701;-43
2022/03/15 10:53:25;;;;;;;;;29.25;22.50;;;;;12.05;75.83;101862.88;5080514;27;45362;-42
2022/03/15 10:56:07;;;;;;;;;30.75;27.75;;;;;12.06;75.57;101848.56;5080162;27;46271;-43
2022/03/15 10:58:34;;;;;;;;;32.25;24.50;;;;;12.18;75.95;101858.19;5080173;27;45374;-42
2022/03/15 11:00:59;;;;;;;;;30.00;25.75;;;;;12.23;75.41;101847.13;5080234;27;45350;-41
2022/03/15 11:03:25;;;;;;;;;33.75;25.75;;;;;12.24;75.45;101851.47;5080445;27;45322;-43
2022/03/15 11:05:57;;;;;;;;;32.50;27.25;;;;;12.24;75.61;101857.66;5080057;27;46980;-45
2022/03/15 11:08:22;;;;;;;;;33.00;26.25;;;;;12.27;75.66;101850.38;5079752;27;45346;-43
2022/03/15 11:10:52;;;;;;;;;30.75;26.50;;;;;12.36;75.05;101849.59;5080010;27;45559;-44
2022/03/15 11:13:18;;;;;;;;;32.75;27.25;;;;;12.39;75.23;101852.00;5080360;27;45389;-44